Time;durP1;ratioP1;P1;durP2;ratioP2;P2;SDS_P1;SDS_P2;PMS_P1;PMS_P2;Temp;Humidity;BMP_temperature;BMP_pressure;BME280_temperature;BME280_humidity;BME280_pressure;Samples;Min_cycle;Max_cycle;Signal;HPM_P1;HPM_P2
2023/08/12 00:01:21;;;;;;;13.63;5.95;;;;;;;-145.33;100.00;60416.63;4988016;28;20026;-23
2023/08/12 00:03:46;;;;;;;9.10;4.03;;;;;;;-145.33;100.00;60416.63;4987030;28;20030;-25
2023/08/12 00:06:12;;;;;;;9.10;4.38;;;;;;;-145.33;100.00;60416.63;4987783;28;20046;-24
2023/08/12 00:08:37;;;;;;;8.02;4.35;;;;;;;-145.33;100.00;60416.63;4987729;28;20774;-24
2023/08/12 00:11:02;;;;;;;10.40;4.55;;;;;;;-145.33;100.00;60416.63;4987753;28;20484;-24
2023/08/12 00:13:28;;;;;;;8.00;4.28;;;;;;;-145.33;100.00;60416.63;4987486;28;20113;-25
2023/08/12 00:15:53;;;;;;;8.73;4.40;;;;;;;-145.33;100.00;60416.63;4987393;28;20545;-24
2023/08/12 00:18:19;;;;;;;6.25;3.75;;;;;;;-145.33;100.00;60416.63;4987045;28;20019;-26
2023/08/12 00:20:44;;;;;;;8.30;4.07;;;;;;;-145.33;100.00;60416.63;4987655;28;20037;-23
2023/08/12 00:23:10;;;;;;;6.38;3.90;;;;;;;-145.33;100.00;60416.63;4987304;28;20037;-23
2023/08/12 00:25:35;;;;;;;5.15;3.40;;;;;;;-145.33;100.00;60416.63;4987724;28;20026;-24
2023/08/12 00:28:01;;;;;;;7.18;3.45;;;;;;;-145.33;100.00;60416.63;4987048;28;20034;-23
2023/08/12 00:30:26;;;;;;;5.95;3.45;;;;;;;-145.33;100.00;60416.63;4987332;28;20053;-24
2023/08/12 00:32:52;;;;;;;5.22;3.45;;;;;;;-145.33;100.00;60416.63;4987360;28;20042;-23
2023/08/12 00:35:17;;;;;;;4.75;3.35;;;;;;;-145.33;100.00;60416.63;4986743;28;20026;-24
2023/08/12 00:37:43;;;;;;;4.88;3.20;;;;;;;-145.33;100.00;60416.63;4987555;28;20038;-24
2023/08/12 00:40:09;;;;;;;5.35;3.20;;;;;;;-145.33;100.00;60416.63;4986979;28;20030;-23
2023/08/12 00:42:34;;;;;;;5.18;3.20;;;;;;;-145.33;100.00;60416.63;4987684;28;20022;-26
2023/08/12 00:45:00;;;;;;;4.53;3.45;;;;;;;-145.33;100.00;60416.63;4986736;28;20029;-28
2023/08/12 00:47:27;;;;;;;6.30;3.30;;;;;;;-145.33;100.00;60416.63;4987058;28;20026;-27
2023/08/12 00:49:52;;;;;;;9.55;4.10;;;;;;;-145.33;100.00;60416.63;4986951;28;20027;-23
2023/08/12 00:52:19;;;;;;;7.40;3.67;;;;;;;-145.33;100.00;60416.63;4986777;28;20041;-24
2023/08/12 00:54:45;;;;;;;6.88;3.80;;;;;;;-145.33;100.00;60416.63;4986809;28;20061;-24
2023/08/12 00:57:11;;;;;;;5.07;3.50;;;;;;;-145.33;100.00;60416.63;4986924;28;20027;-23
2023/08/12 00:59:37;;;;;;;4.68;3.33;;;;;;;-145.33;100.00;60416.63;4987128;28;20046;-24
2023/08/12 01:02:04;;;;;;;6.25;3.15;;;;;;;-145.33;100.00;60416.63;4986661;28;20730;-25
2023/08/12 01:04:30;;;;;;;5.70;3.40;;;;;;;-145.33;100.00;60416.63;4986649;28;20034;-24
2023/08/12 01:06:55;;;;;;;6.95;3.70;;;;;;;-145.33;100.00;60416.63;4985945;28;20054;-23
2023/08/12 01:09:21;;;;;;;7.40;4.53;;;;;;;-145.33;100.00;60416.63;4986641;28;20137;-23
2023/08/12 01:12:04;;;;;;;13.82;5.57;;;;;;;-145.33;100.00;60416.63;4986601;28;20027;-31
2023/08/12 01:14:33;;;;;;;17.48;7.50;;;;;;;-145.33;100.00;60416.63;4986823;28;20034;-23
2023/08/12 01:17:05;;;;;;;13.20;6.80;;;;;;;-145.33;100.00;60416.63;4986114;28;20026;-24
2023/08/12 01:19:36;;;;;;;13.07;5.70;;;;;;;-145.33;100.00;60416.63;4986301;28;20861;-24
2023/08/12 01:22:03;;;;;;;9.23;4.95;;;;;;;-145.33;100.00;60416.63;4985919;28;20030;-24
2023/08/12 01:24:45;;;;;;;9.37;4.67;;;;;;;-145.33;100.00;60416.63;4986199;28;20039;-24
2023/08/12 01:27:11;;;;;;;8.75;4.63;;;;;;;-145.33;100.00;60416.63;4986254;28;20033;-24
2023/08/12 01:29:47;;;;;;;9.60;4.43;;;;;;;-145.33;100.00;60416.63;4985861;28;20516;-23
2023/08/12 01:32:37;;;;;;;8.18;4.82;;;;;;;-145.33;100.00;60416.63;4986327;28;20041;-24
2023/08/12 01:35:19;;;;;;;6.22;4.15;;;;;;;-145.33;100.00;60416.63;4986108;28;20430;-24
2023/08/12 01:37:45;;;;;;;7.88;4.35;;;;;;;-145.33;100.00;60416.63;4986403;28;20034;-23
2023/08/12 01:40:12;;;;;;;7.45;4.07;;;;;;;-145.33;100.00;60416.63;4986419;28;20081;-24
2023/08/12 01:42:39;;;;;;;5.97;3.67;;;;;;;-145.33;100.00;60416.63;4985566;28;20034;-24
2023/08/12 01:45:06;;;;;;;7.35;3.88;;;;;;;-145.33;100.00;60416.63;4986345;28;20030;-24
2023/08/12 01:47:32;;;;;;;5.90;3.53;;;;;;;-145.33;100.00;60416.63;4985738;28;20100;-23
2023/08/12 01:49:58;;;;;;;6.63;3.90;;;;;;;-145.33;100.00;60416.63;4985923;28;20105;-24
2023/08/12 01:52:24;;;;;;;6.47;4.40;;;;;;;-145.33;100.00;60416.63;4985822;28;20493;-24
2023/08/12 01:54:49;;;;;;;5.63;4.15;;;;;;;-145.33;100.00;60416.63;4985716;28;20876;-23
2023/08/12 01:57:15;;;;;;;6.75;4.45;;;;;;;-145.33;100.00;60416.63;4986432;28;20117;-24
2023/08/12 01:59:41;;;;;;;6.28;4.32;;;;;;;-145.33;100.00;60416.63;4985902;28;20030;-23
2023/08/12 02:02:06;;;;;;;8.82;5.05;;;;;;;-145.33;100.00;60416.63;4986223;28;20038;-24
2023/08/12 02:04:32;;;;;;;7.10;5.18;;;;;;;-145.33;100.00;60416.63;4985659;28;20069;-25
2023/08/12 02:06:58;;;;;;;9.38;5.95;;;;;;;-145.33;100.00;60416.63;4985674;28;20121;-23
2023/08/12 02:09:23;;;;;;;7.93;5.90;;;;;;;-145.33;100.00;60416.63;4986034;28;20070;-23
2023/08/12 02:11:49;;;;;;;14.52;8.73;;;;;;;-145.33;100.00;60416.63;4985824;28;20037;-24
2023/08/12 02:14:15;;;;;;;9.85;5.90;;;;;;;-145.33;100.00;60416.63;4985980;28;20117;-24
2023/08/12 02:16:41;;;;;;;6.30;4.53;;;;;;;-145.33;100.00;60416.63;4985756;28;20109;-24
2023/08/12 02:19:06;;;;;;;6.28;5.15;;;;;;;-145.33;100.00;60416.63;4988871;28;20033;-24
2023/08/12 02:21:32;;;;;;;7.63;5.43;;;;;;;-145.33;100.00;60416.63;4989591;28;20049;-24
2023/08/12 02:23:57;;;;;;;5.93;4.72;;;;;;;-145.33;100.00;60416.63;4989710;28;20026;-24
2023/08/12 02:26:23;;;;;;;6.75;4.97;;;;;;;-145.33;100.00;60416.63;4989619;28;20097;-23
2023/08/12 02:28:48;;;;;;;6.95;4.93;;;;;;;-145.33;100.00;60416.63;4989449;28;20180;-25
2023/08/12 02:31:15;;;;;;;7.45;4.75;;;;;;;-145.33;100.00;60416.63;4989487;28;20034;-25
2023/08/12 02:33:41;;;;;;;6.68;4.82;;;;;;;-145.33;100.00;60416.63;4989295;28;20091;-24
2023/08/12 02:36:06;;;;;;;6.78;4.80;;;;;;;-145.33;100.00;60416.63;4989179;28;20027;-24
2023/08/12 02:38:31;;;;;;;8.15;5.05;;;;;;;-145.33;100.00;60416.63;4989328;28;20034;-24
2023/08/12 02:40:57;;;;;;;6.10;4.95;;;;;;;-145.33;100.00;60416.63;4989521;28;20038;-23
2023/08/12 02:43:22;;;;;;;8.00;5.28;;;;;;;-145.33;100.00;60416.63;4989330;28;20396;-24
2023/08/12 02:45:48;;;;;;;6.28;4.75;;;;;;;-145.33;100.00;60416.63;4989309;28;20022;-28
2023/08/12 02:48:13;;;;;;;6.57;4.70;;;;;;;-145.33;100.00;60416.63;4989230;28;20022;-24
2023/08/12 02:50:39;;;;;;;8.48;5.63;;;;;;;-145.33;100.00;60416.63;4988794;28;20035;-25
2023/08/12 02:53:06;;;;;;;7.95;5.07;;;;;;;-145.33;100.00;60416.63;4988735;28;20043;-24
2023/08/12 02:55:32;;;;;;;6.82;5.10;;;;;;;-145.33;100.00;60416.63;4989143;28;20140;-24
2023/08/12 02:57:58;;;;;;;8.05;5.05;;;;;;;-145.33;100.00;60416.63;4989064;28;20461;-24
2023/08/12 03:00:23;;;;;;;5.68;4.60;;;;;;;-145.33;100.00;60416.63;4988676;28;20030;-24
2023/08/12 03:02:48;;;;;;;9.35;5.43;;;;;;;-145.33;100.00;60416.63;4988854;28;20502;-28
2023/08/12 03:05:14;;;;;;;9.38;5.10;;;;;;;-145.33;100.00;60416.63;4988966;28;20426;-24
2023/08/12 03:07:39;;;;;;;8.43;5.15;;;;;;;-145.33;100.00;60416.63;4988890;28;20078;-24
2023/08/12 03:10:06;;;;;;;7.40;5.10;;;;;;;-145.33;100.00;60416.63;4988670;28;20018;-23
2023/08/12 03:12:31;;;;;;;7.75;5.38;;;;;;;-145.33;100.00;60416.63;4988795;28;20061;-24
2023/08/12 03:14:57;;;;;;;7.07;5.20;;;;;;;-145.33;100.00;60416.63;4988288;28;20050;-23
2023/08/12 03:17:22;;;;;;;12.88;5.40;;;;;;;-145.33;100.00;60416.63;4988939;28;20425;-25
2023/08/12 03:19:49;;;;;;;8.20;5.40;;;;;;;-145.33;100.00;60416.63;4988462;28;20548;-26
2023/08/12 03:22:14;;;;;;;10.45;5.65;;;;;;;-145.33;100.00;60416.63;4988621;28;20030;-23
2023/08/12 03:24:40;;;;;;;7.75;5.70;;;;;;;-145.33;100.00;60416.63;4988499;28;20023;-25
2023/08/12 03:27:05;;;;;;;7.50;5.07;;;;;;;-145.33;100.00;60416.63;4988636;28;20027;-23
2023/08/12 03:29:31;;;;;;;11.75;5.22;;;;;;;-145.33;100.00;60416.63;4987934;28;20449;-23
2023/08/12 03:31:56;;;;;;;9.57;4.75;;;;;;;-145.33;100.00;60416.63;4988218;28;20113;-27
2023/08/12 03:34:22;;;;;;;7.45;4.97;;;;;;;-145.33;100.00;60416.63;4988029;28;20078;-25
2023/08/12 03:36:48;;;;;;;6.90;5.30;;;;;;;-145.33;100.00;60416.63;4988574;28;20032;-24
2023/08/12 03:39:14;;;;;;;6.88;5.20;;;;;;;-145.33;100.00;60416.63;4988218;28;21024;-23
2023/08/12 03:41:40;;;;;;;10.35;4.90;;;;;;;-145.33;100.00;60416.63;4988347;28;20485;-25
2023/08/12 03:44:05;;;;;;;9.35;5.57;;;;;;;-145.33;100.00;60416.63;4987991;28;20419;-25
2023/08/12 03:46:31;;;;;;;8.35;5.22;;;;;;;-145.33;100.00;60416.63;4988123;28;20038;-24
2023/08/12 03:48:56;;;;;;;7.97;5.60;;;;;;;-145.33;100.00;60416.63;4987692;28;20417;-25
2023/08/12 03:51:22;;;;;;;7.85;5.13;;;;;;;-145.33;100.00;60416.63;4988116;28;20038;-23
2023/08/12 03:53:47;;;;;;;8.23;4.85;;;;;;;-145.33;100.00;60416.63;4987816;28;20695;-24
2023/08/12 03:56:15;;;;;;;11.25;5.93;;;;;;;-145.33;100.00;60416.63;4987940;28;20033;-25
2023/08/12 03:58:41;;;;;;;11.43;5.88;;;;;;;-145.33;100.00;60416.63;4987490;28;20026;-24
2023/08/12 04:01:06;;;;;;;8.32;5.35;;;;;;;-145.33;100.00;60416.63;4987977;28;20084;-24
2023/08/12 04:03:31;;;;;;;8.10;5.05;;;;;;;-145.33;100.00;60416.63;4987811;28;20060;-23
2023/08/12 04:05:57;;;;;;;8.85;5.70;;;;;;;-145.33;100.00;60416.63;4990446;28;20201;-23
2023/08/12 04:08:24;;;;;;;8.70;5.32;;;;;;;-145.33;100.00;60416.63;5007466;28;20048;-26
2023/08/12 04:10:50;;;;;;;7.95;4.97;;;;;;;-145.33;100.00;60416.63;5007087;28;20022;-23
2023/08/12 04:13:16;;;;;;;8.50;4.95;;;;;;;-145.33;100.00;60416.63;5007616;28;20042;-24
2023/08/12 04:15:41;;;;;;;12.95;4.95;;;;;;;-145.33;100.00;60416.63;5006712;28;20029;-24
2023/08/12 04:18:07;;;;;;;7.32;4.97;;;;;;;-145.33;100.00;60416.63;5007242;28;20030;-23
2023/08/12 04:20:32;;;;;;;8.57;4.53;;;;;;;-145.33;100.00;60416.63;5006824;28;20416;-24
2023/08/12 04:22:58;;;;;;;6.70;4.93;;;;;;;-145.33;100.00;60416.63;5006958;28;20076;-24
2023/08/12 04:25:24;;;;;;;14.68;5.20;;;;;;;-145.33;100.00;60416.63;5006626;28;20087;-26
2023/08/12 04:27:49;;;;;;;7.65;5.18;;;;;;;-145.33;100.00;60416.63;5007227;28;20030;-24
2023/08/12 04:30:16;;;;;;;9.65;4.40;;;;;;;-145.33;100.00;60416.63;5006940;28;20030;-25
2023/08/12 04:32:41;;;;;;;10.60;5.25;;;;;;;-145.33;100.00;60416.63;5006610;28;20033;-27
2023/08/12 04:35:08;;;;;;;7.15;5.25;;;;;;;-145.33;100.00;60416.63;5006385;28;20418;-24
2023/08/12 04:37:33;;;;;;;6.03;4.80;;;;;;;-145.33;100.00;60416.63;5006607;28;20075;-23
2023/08/12 04:39:58;;;;;;;6.65;4.68;;;;;;;-145.33;100.00;60416.63;5005987;28;20030;-26
2023/08/12 04:42:24;;;;;;;7.53;5.43;;;;;;;-145.33;100.00;60416.63;5006553;28;20116;-24
2023/08/12 04:44:49;;;;;;;7.57;4.70;;;;;;;-145.33;100.00;60416.63;5006907;28;20464;-25
2023/08/12 04:47:15;;;;;;;11.18;5.22;;;;;;;-145.33;100.00;60416.63;5006497;28;20044;-23
2023/08/12 04:49:41;;;;;;;7.80;4.97;;;;;;;-145.33;100.00;60416.63;5006561;28;20064;-23
2023/08/12 04:52:06;;;;;;;7.60;5.80;;;;;;;-145.33;100.00;60416.63;5006574;28;20030;-30
2023/08/12 04:54:32;;;;;;;14.35;10.55;;;;;;;-145.33;100.00;60416.63;5006262;28;20041;-25
2023/08/12 04:56:59;;;;;;;25.00;15.80;;;;;;;-145.33;100.00;60416.63;5006372;28;20583;-23
2023/08/12 04:59:25;;;;;;;16.98;10.35;;;;;;;-145.33;100.00;60416.63;5006147;28;20457;-24
2023/08/12 05:01:50;;;;;;;20.17;16.95;;;;;;;-145.33;100.00;60416.63;5006046;28;20128;-28
2023/08/12 05:04:15;;;;;;;29.90;25.65;;;;;;;-145.33;100.00;60416.63;5006378;28;20045;-25
2023/08/12 05:06:41;;;;;;;48.15;37.28;;;;;;;-145.33;100.00;60416.63;5005772;28;20057;-23
2023/08/12 05:09:07;;;;;;;54.72;44.63;;;;;;;-145.33;100.00;60416.63;5006451;28;20022;-24
2023/08/12 05:11:32;;;;;;;51.30;39.72;;;;;;;-145.33;100.00;60416.63;5006193;28;20018;-23
2023/08/12 05:13:58;;;;;;;77.07;51.90;;;;;;;-145.33;100.00;60416.63;5006149;28;20413;-26
2023/08/12 05:16:23;;;;;;;45.53;28.52;;;;;;;-145.33;100.00;60416.63;5005766;28;20073;-23
2023/08/12 05:18:48;;;;;;;17.98;10.68;;;;;;;-145.33;100.00;60416.63;5005563;28;20022;-24
2023/08/12 05:21:14;;;;;;;36.85;22.27;;;;;;;-145.33;100.00;60416.63;5005934;28;20461;-24
2023/08/12 05:23:39;;;;;;;52.05;29.63;;;;;;;-145.33;100.00;60416.63;5005976;28;20022;-23
2023/08/12 05:26:05;;;;;;;32.25;19.83;;;;;;;-145.33;100.00;60416.63;5005924;28;20029;-24
2023/08/12 05:28:30;;;;;;;42.20;23.40;;;;;;;-145.33;100.00;60416.63;5006082;28;20026;-26
2023/08/12 05:30:56;;;;;;;12.25;6.18;;;;;;;-145.33;100.00;60416.63;5005175;28;20072;-34
2023/08/12 05:33:24;;;;;;;15.23;9.25;;;;;;;-145.33;100.00;60416.63;5005788;28;20061;-24
2023/08/12 05:35:49;;;;;;;8.43;4.05;;;;;;;-145.33;100.00;60416.63;5005878;28;20029;-23
2023/08/12 05:38:15;;;;;;;9.43;4.95;;;;;;;-145.33;100.00;60416.63;5005694;28;20491;-25
2023/08/12 05:40:41;;;;;;;18.40;9.75;;;;;;;-145.33;100.00;60416.63;5005824;28;20278;-23
2023/08/12 05:43:06;;;;;;;20.60;9.32;;;;;;;-145.33;100.00;60416.63;5005084;28;20034;-25
2023/08/12 05:45:32;;;;;;;11.10;6.05;;;;;;;-145.33;100.00;60416.63;5005659;28;20033;-24
2023/08/12 05:47:57;;;;;;;21.48;11.35;;;;;;;-145.33;100.00;60416.63;4973696;28;20038;-25
2023/08/12 05:50:23;;;;;;;40.13;17.67;;;;;;;-145.33;100.00;60416.63;4985771;28;20506;-23
2023/08/12 05:52:48;;;;;;;88.82;39.50;;;;;;;-145.33;100.00;60416.63;4991122;28;20149;-34
2023/08/12 05:55:14;;;;;;;15.88;10.35;;;;;;;-145.33;100.00;60416.63;4992108;28;20480;-25
2023/08/12 05:57:39;;;;;;;20.35;10.60;;;;;;;-145.33;100.00;60416.63;4992509;28;20061;-23
2023/08/12 06:00:06;;;;;;;20.20;11.15;;;;;;;-145.33;100.00;60416.63;4992194;28;20061;-24
2023/08/12 06:02:31;;;;;;;12.15;8.45;;;;;;;-145.33;100.00;60416.63;4992415;28;20030;-24
2023/08/12 06:04:57;;;;;;;34.67;22.17;;;;;;;-145.33;100.00;60416.63;4992096;28;20037;-24
2023/08/12 06:07:23;;;;;;;15.50;9.85;;;;;;;-145.33;100.00;60416.63;4991646;28;20050;-24
2023/08/12 06:09:50;;;;;;;22.25;15.93;;;;;;;-145.33;100.00;60416.63;4991871;28;20092;-25
2023/08/12 06:12:16;;;;;;;22.25;14.32;;;;;;;-145.33;100.00;60416.63;4991640;28;20026;-23
2023/08/12 06:14:41;;;;;;;36.63;22.63;;;;;;;-145.33;100.00;60416.63;4992010;28;20026;-24
2023/08/12 06:17:09;;;;;;;53.35;33.17;;;;;;;-145.33;100.00;60416.63;4991686;28;20037;-24
2023/08/12 06:19:35;;;;;;;17.17;10.82;;;;;;;-145.33;100.00;60416.63;4991653;28;20077;-24
2023/08/12 06:22:00;;;;;;;8.32;3.90;;;;;;;-145.33;100.00;60416.63;4991019;28;20026;-24
2023/08/12 06:24:25;;;;;;;8.93;5.03;;;;;;;-145.33;100.00;60416.63;4991630;28;20022;-23
2023/08/12 06:26:51;;;;;;;8.02;4.55;;;;;;;-145.33;100.00;60416.63;4991658;28;20033;-24
2023/08/12 06:29:16;;;;;;;20.67;15.48;;;;;;;-145.33;100.00;60416.63;4992186;28;20029;-23
2023/08/12 06:31:42;;;;;;;67.20;55.42;;;;;;;-145.33;100.00;60416.63;4991746;28;20058;-24
2023/08/12 06:34:07;;;;;;;53.05;40.17;;;;;;;-145.33;100.00;60416.63;4991864;28;20030;-23
2023/08/12 06:36:33;;;;;;;8.93;5.07;;;;;;;-145.33;100.00;60416.63;4992134;28;20037;-23
2023/08/12 06:38:58;;;;;;;7.93;3.45;;;;;;;-145.33;100.00;60416.63;4991485;28;20031;-24
2023/08/12 06:41:24;;;;;;;19.63;14.23;;;;;;;-145.33;100.00;60416.63;4992091;28;20038;-24
2023/08/12 06:43:49;;;;;;;15.30;9.98;;;;;;;-145.33;100.00;60416.63;4991902;28;20065;-25
2023/08/12 06:46:15;;;;;;;8.32;4.53;;;;;;;-145.33;100.00;60416.63;4991981;28;20519;-24
2023/08/12 06:48:40;;;;;;;5.45;2.80;;;;;;;-145.33;100.00;60416.63;4991548;28;20030;-26
2023/08/12 06:51:11;;;;;;;21.58;12.98;;;;;;;-145.33;100.00;60416.63;4991250;28;20687;-25
2023/08/12 06:53:38;;;;;;;5.25;2.85;;;;;;;-145.33;100.00;60416.63;4991971;28;20085;-24
2023/08/12 06:56:03;;;;;;;6.60;5.20;;;;;;;-145.33;100.00;60416.63;4992236;28;20058;-25
2023/08/12 06:58:29;;;;;;;6.90;5.03;;;;;;;-145.33;100.00;60416.63;4991415;28;20062;-24
2023/08/12 07:00:54;;;;;;;19.90;14.82;;;;;;;-145.33;100.00;60416.63;4991985;28;20469;-24
2023/08/12 07:03:20;;;;;;;18.08;11.32;;;;;;;-145.33;100.00;60416.63;4990039;28;20041;-29
2023/08/12 07:05:45;;;;;;;23.98;17.73;;;;;;;-145.33;100.00;60416.63;4987495;28;20038;-24
2023/08/12 07:08:11;;;;;;;12.38;8.07;;;;;;;-145.33;100.00;60416.63;4969309;28;20121;-24
2023/08/12 07:10:40;;;;;;;17.67;12.45;;;;;;;-145.33;100.00;60416.63;4968945;28;20027;-23
2023/08/12 07:13:06;;;;;;;22.48;19.85;;;;;;;-145.33;100.00;60416.63;4968528;28;20026;-25
2023/08/12 07:15:31;;;;;;;47.13;40.97;;;;;;;-145.33;100.00;60416.63;4968808;28;20594;-24
2023/08/12 07:17:57;;;;;;;16.77;12.32;;;;;;;-145.33;100.00;60416.63;4968901;28;20031;-25
2023/08/12 07:20:26;;;;;;;10.27;7.13;;;;;;;-145.33;100.00;60416.63;4968928;28;20049;-23
2023/08/12 07:22:52;;;;;;;8.50;4.95;;;;;;;-145.33;100.00;60416.63;4969056;28;20121;-23
2023/08/12 07:25:18;;;;;;;4.82;3.10;;;;;;;-145.33;100.00;60416.63;4969272;28;20085;-23
2023/08/12 07:27:43;;;;;;;4.38;2.97;;;;;;;-145.33;100.00;60416.63;4968752;28;20125;-26
2023/08/12 07:30:09;;;;;;;7.45;4.47;;;;;;;-145.33;100.00;60416.63;4968791;28;20110;-23
2023/08/12 07:32:37;;;;;;;4.90;2.88;;;;;;;-145.33;100.00;60416.63;4968677;28;20031;-24
2023/08/12 07:35:05;;;;;;;6.78;3.22;;;;;;;-145.33;100.00;60416.63;4969015;28;20089;-27
2023/08/12 07:37:30;;;;;;;5.85;3.15;;;;;;;-145.33;100.00;60416.63;4968792;28;20042;-25
2023/08/12 07:39:56;;;;;;;4.78;2.80;;;;;;;-145.33;100.00;60416.63;4968626;28;20027;-25
2023/08/12 07:42:21;;;;;;;8.98;5.80;;;;;;;-145.33;100.00;60416.63;4968789;28;20109;-25
2023/08/12 07:44:47;;;;;;;53.15;35.22;;;;;;;-145.33;100.00;60416.63;4968844;28;20100;-24
2023/08/12 07:47:15;;;;;;;35.75;24.83;;;;;;;-145.33;100.00;60416.63;4968510;28;20465;-24
2023/08/12 07:49:41;;;;;;;42.35;33.78;;;;;;;-145.33;100.00;60416.63;4968650;28;20106;-24
2023/08/12 07:52:08;;;;;;;17.15;14.13;;;;;;;-145.33;100.00;60416.63;4968668;28;20039;-24
2023/08/12 07:54:34;;;;;;;38.08;33.08;;;;;;;-145.33;100.00;60416.63;4968285;28;20034;-24
2023/08/12 07:56:59;;;;;;;11.13;7.07;;;;;;;-145.33;100.00;60416.63;4968598;28;20031;-25
2023/08/12 07:59:25;;;;;;;47.42;31.48;;;;;;;-145.33;100.00;60416.63;4968257;28;20089;-23
2023/08/12 08:01:51;;;;;;;19.02;14.43;;;;;;;-145.33;100.00;60416.63;4968476;28;20697;-25
2023/08/12 08:04:17;;;;;;;5.80;3.42;;;;;;;-145.33;100.00;60416.63;4968526;28;20033;-25
2023/08/12 08:06:42;;;;;;;5.95;3.05;;;;;;;-145.33;100.00;60416.63;4968415;28;20051;-24
2023/08/12 08:09:07;;;;;;;7.50;4.95;;;;;;;-145.33;100.00;60416.63;4968450;28;20037;-24
2023/08/12 08:11:34;;;;;;;27.67;16.10;;;;;;;-145.33;100.00;60416.63;4967685;28;20023;-25
2023/08/12 08:13:59;;;;;;;6.75;3.53;;;;;;;-145.33;100.00;60416.63;4968222;28;20031;-25
2023/08/12 08:16:24;;;;;;;5.93;3.00;;;;;;;-145.33;100.00;60416.63;4966792;28;20399;-25
2023/08/12 08:18:50;;;;;;;50.30;33.35;;;;;;;-145.33;100.00;60416.63;4967769;28;20097;-24
2023/08/12 08:21:16;;;;;;;23.83;15.65;;;;;;;-145.33;100.00;60416.63;4968395;28;20122;-23
2023/08/12 08:23:42;;;;;;;6.25;3.30;;;;;;;-145.33;100.00;60416.63;4967978;28;20045;-24
2023/08/12 08:26:08;;;;;;;6.03;3.50;;;;;;;-145.33;100.00;60416.63;4968198;28;20034;-24
2023/08/12 08:28:34;;;;;;;8.50;5.28;;;;;;;-145.33;100.00;60416.63;4968120;28;20029;-24
2023/08/12 08:30:59;;;;;;;14.20;9.77;;;;;;;-145.33;100.00;60416.63;4967795;28;20030;-24
2023/08/12 08:33:27;;;;;;;6.85;4.10;;;;;;;-145.33;100.00;60416.63;4967667;28;20034;-24
2023/08/12 08:35:54;;;;;;;5.97;3.60;;;;;;;-145.33;100.00;60416.63;4967671;28;20114;-24
2023/08/12 08:38:19;;;;;;;71.43;63.92;;;;;;;-145.33;100.00;60416.63;4967495;28;20077;-26
2023/08/12 08:40:45;;;;;;;40.35;35.90;;;;;;;-145.33;100.00;60416.63;4967734;28;20058;-25
2023/08/12 08:43:15;;;;;;;18.63;14.13;;;;;;;-145.33;100.00;60416.63;4967519;28;20106;-25
2023/08/12 08:45:43;;;;;;;18.77;12.43;;;;;;;-145.33;100.00;60416.63;4967836;28;20027;-26
2023/08/12 08:48:11;;;;;;;16.38;11.43;;;;;;;-145.33;100.00;60416.63;4967038;28;20042;-24
2023/08/12 08:50:36;;;;;;;;;;;;;;;-145.33;100.00;60416.63;4968122;28;20027;-28
2023/08/12 08:53:04;;;;;;;39.90;34.33;;;;;;;-145.33;100.00;60416.63;4967201;28;19925;-24
2023/08/12 08:55:30;;;;;;;31.88;26.85;;;;;;;-145.33;100.00;60416.63;4967504;28;20057;-26
2023/08/12 08:57:56;;;;;;;38.75;19.25;;;;;;;-145.33;100.00;60416.63;4967223;28;20418;-23
2023/08/12 09:00:22;;;;;;;23.50;18.03;;;;;;;-145.33;100.00;60416.63;4966932;28;20070;-24
2023/08/12 09:02:52;;;;;;;21.92;15.75;;;;;;;-145.33;100.00;60416.63;4967571;28;20023;-23
2023/08/12 09:05:20;;;;;;;12.02;8.30;;;;;;;-145.33;100.00;60416.63;4967254;28;20681;-24
2023/08/12 09:07:47;;;;;;;9.95;6.00;;;;;;;-145.33;100.00;60416.63;4966990;28;20634;-24
2023/08/12 09:10:12;;;;;;;10.32;5.72;;;;;;;-145.33;100.00;60416.63;4967357;28;20092;-24
2023/08/12 09:12:39;;;;;;;6.03;3.67;;;;;;;-145.33;100.00;60416.63;4967016;28;20488;-23
2023/08/12 09:15:06;;;;;;;4.55;2.83;;;;;;;-145.33;100.00;60416.63;4967238;28;20118;-24
2023/08/12 09:17:32;;;;;;;4.80;3.05;;;;;;;-145.33;100.00;60416.63;4966972;28;20599;-23
2023/08/12 09:19:58;;;;;;;19.85;5.72;;;;;;;-145.33;100.00;60416.63;4966932;28;20064;-25
2023/08/12 09:22:58;;;;;;;13.90;6.80;;;;;;;-145.33;100.00;60416.63;4967313;28;20033;-24
2023/08/12 09:25:31;;;;;;;5.15;2.45;;;;;;;-145.33;100.00;60416.63;4965277;28;20102;-24
2023/08/12 09:28:03;;;;;;;4.72;2.90;;;;;;;-145.33;100.00;60416.63;4965399;28;20061;-24
2023/08/12 09:30:31;;;;;;;6.78;2.90;;;;;;;-145.33;100.00;60416.63;4965312;28;20026;-26
2023/08/12 09:33:03;;;;;;;4.93;2.50;;;;;;;-145.33;100.00;60416.63;4966043;28;20525;-23
2023/08/12 09:35:36;;;;;;;19.85;13.20;;;;;;;-145.33;100.00;60416.63;4966336;28;20106;-24
2023/08/12 09:38:03;;;;;;;6.15;3.50;;;;;;;-145.33;100.00;60416.63;4966086;28;20046;-23
2023/08/12 09:40:31;;;;;;;11.65;6.57;;;;;;;-145.33;100.00;60416.63;4966539;28;20027;-24
2023/08/12 09:42:58;;;;;;;;;;;;;;;-145.33;100.00;60416.63;4967254;28;20084;-24
2023/08/12 09:45:25;;;;;;;3.65;2.45;;;;;;;-145.33;100.00;60416.63;4966437;28;19925;-25
2023/08/12 09:47:51;;;;;;;5.03;2.10;;;;;;;-145.33;100.00;60416.63;4966554;28;20030;-23
2023/08/12 09:50:16;;;;;;;3.65;2.35;;;;;;;-145.33;100.00;60416.63;4966594;28;20077;-23
2023/08/12 09:52:42;;;;;;;5.30;2.50;;;;;;;-145.33;100.00;60416.63;4966651;28;20038;-26
2023/08/12 09:55:11;;;;;;;3.90;2.33;;;;;;;-145.33;100.00;60416.63;4966674;28;20031;-23
2023/08/12 09:57:42;;;;;;;4.47;2.42;;;;;;;-145.33;100.00;60416.63;4966586;28;20395;-24
2023/08/12 10:00:13;;;;;;;5.72;2.60;;;;;;;-145.33;100.00;60416.63;4966901;28;20030;-28
2023/08/12 10:02:47;;;;;;;5.75;2.60;;;;;;;-145.33;100.00;60416.63;4966436;28;20035;-24
2023/08/12 10:05:22;;;;;;;3.30;2.42;;;;;;;-145.33;100.00;60416.63;4966492;28;20038;-24
2023/08/12 10:07:48;;;;;;;6.88;2.70;;;;;;;-145.33;100.00;60416.63;4966322;28;20101;-23
2023/08/12 10:10:14;;;;;;;3.78;2.38;;;;;;;-145.33;100.00;60416.63;4966537;28;20078;-24
2023/08/12 10:12:41;;;;;;;3.25;2.15;;;;;;;-145.33;100.00;60416.63;4966523;28;20042;-24
2023/08/12 10:15:10;;;;;;;4.15;2.35;;;;;;;-145.33;100.00;60416.63;4966390;28;20030;-25
2023/08/12 10:17:36;;;;;;;5.75;2.55;;;;;;;-145.33;100.00;60416.63;4966645;28;20035;-23
2023/08/12 10:20:04;;;;;;;4.40;2.85;;;;;;;-145.33;100.00;60416.63;4966551;28;20050;-24
2023/08/12 10:22:30;;;;;;;3.20;2.25;;;;;;;-145.33;100.00;60416.63;4965955;28;20039;-24
2023/08/12 10:25:02;;;;;;;7.88;2.50;;;;;;;-145.33;100.00;60416.63;4966341;28;20019;-25
2023/08/12 10:27:28;;;;;;;4.90;2.55;;;;;;;-145.33;100.00;60416.63;4965996;28;20058;-24
2023/08/12 10:29:57;;;;;;;4.55;2.28;;;;;;;-145.33;100.00;60416.63;4966288;28;20047;-24
2023/08/12 10:32:23;;;;;;;4.78;2.47;;;;;;;-145.33;100.00;60416.63;4965571;28;20632;-24
2023/08/12 10:34:56;;;;;;;4.87;3.07;;;;;;;-145.33;100.00;60416.63;4966217;28;20053;-24
2023/08/12 10:37:23;;;;;;;4.38;2.25;;;;;;;-145.33;100.00;60416.63;4966285;28;20030;-23
2023/08/12 10:39:49;;;;;;;5.70;2.20;;;;;;;-145.33;100.00;60416.63;4968691;28;20780;-23
2023/08/12 10:42:43;;;;;;;4.45;2.13;;;;;;;-145.33;100.00;60416.63;4969797;28;20070;-24
2023/08/12 10:45:14;;;;;;;4.10;2.28;;;;;;;-145.33;100.00;60416.63;4970099;28;20773;-25
2023/08/12 10:48:11;;;;;;;5.88;2.30;;;;;;;-145.33;100.00;60416.63;4969725;28;20466;-24
2023/08/12 10:50:44;;;;;;;5.15;2.30;;;;;;;-145.33;100.00;60416.63;4969721;28;20030;-24
2023/08/12 10:53:31;;;;;;;3.25;2.38;;;;;;;-145.33;100.00;60416.63;4969524;28;20031;-24
2023/08/12 10:55:58;;;;;;;3.92;2.20;;;;;;;-145.33;100.00;60416.63;4969550;28;20045;-24
2023/08/12 10:58:25;;;;;;;;;;;;;;;-145.33;100.00;60416.63;4969725;28;20034;-24
2023/08/12 11:00:55;;;;;;;3.65;2.20;;;;;;;-145.33;100.00;60416.63;4969801;28;19914;-24
2023/08/12 11:03:20;;;;;;;3.95;2.17;;;;;;;-145.33;100.00;60416.63;4969637;28;20042;-23